sensor_id;sensor_type;location;lat;lon;timestamp;pressure;altitude;pressure_sealevel;temperature;humidity
49104;BME280;34915;52.926;11.116;2023-06-10T00:01:32;101705.41;;;15.17;94.80
49104;BME280;34915;52.926;11.116;2023-06-10T00:03:59;101695.78;;;15.15;94.22
49104;BME280;34915;52.926;11.116;2023-06-10T00:06:25;101697.13;;;15.09;95.41
49104;BME280;34915;52.926;11.116;2023-06-10T00:08:51;101702.06;;;15.03;96.13
49104;BME280;34915;52.926;11.116;2023-06-10T00:11:16;101693.47;;;15.10;95.94
49104;BME280;34915;52.926;11.116;2023-06-10T00:13:42;101684.00;;;15.06;96.05
49104;BME280;34915;52.926;11.116;2023-06-10T00:16:08;101691.16;;;15.06;96.29
49104;BME280;34915;52.926;11.116;2023-06-10T00:18:33;101688.38;;;15.07;96.19
49104;BME280;34915;52.926;11.116;2023-06-10T00:21:02;101687.75;;;15.04;96.62
49104;BME280;34915;52.926;11.116;2023-06-10T00:23:30;101686.91;;;15.03;96.60
49104;BME280;34915;52.926;11.116;2023-06-10T00:26:03;101698.19;;;15.07;95.34
49104;BME280;34915;52.926;11.116;2023-06-10T00:28:28;101694.16;;;15.01;95.80
49104;BME280;34915;52.926;11.116;2023-06-10T00:30:54;101698.25;;;14.94;95.30
49104;BME280;34915;52.926;11.116;2023-06-10T00:33:19;101707.47;;;14.90;96.36
49104;BME280;34915;52.926;11.116;2023-06-10T00:35:45;101706.91;;;14.85;96.40
49104;BME280;34915;52.926;11.116;2023-06-10T00:38:12;101706.88;;;14.75;97.04
49104;BME280;34915;52.926;11.116;2023-06-10T00:40:41;101705.16;;;14.74;97.98
49104;BME280;34915;52.926;11.116;2023-06-10T00:43:07;101710.72;;;14.71;97.66
49104;BME280;34915;52.926;11.116;2023-06-10T00:45:33;101704.53;;;14.70;96.98
49104;BME280;34915;52.926;11.116;2023-06-10T00:48:01;101710.94;;;14.68;96.62
49104;BME280;34915;52.926;11.116;2023-06-10T00:50:27;101704.56;;;14.58;97.47
49104;BME280;34915;52.926;11.116;2023-06-10T00:52:54;101697.72;;;14.54;97.75
49104;BME280;34915;52.926;11.116;2023-06-10T00:55:20;101692.63;;;14.51;98.64
49104;BME280;34915;52.926;11.116;2023-06-10T00:57:46;101696.50;;;14.47;98.67
49104;BME280;34915;52.926;11.116;2023-06-10T01:00:14;101700.31;;;14.43;98.81
49104;BME280;34915;52.926;11.116;2023-06-10T01:02:41;101696.81;;;14.42;98.80
49104;BME280;34915;52.926;11.116;2023-06-10T01:05:08;101700.53;;;14.40;98.91
49104;BME280;34915;52.926;11.116;2023-06-10T01:07:48;101700.31;;;14.55;98.38
49104;BME280;34915;52.926;11.116;2023-06-10T01:13:07;101705.38;;;14.35;99.85
49104;BME280;34915;52.926;11.116;2023-06-10T01:15:38;101702.47;;;14.38;99.97
49104;BME280;34915;52.926;11.116;2023-06-10T01:18:08;101700.75;;;14.37;99.34
49104;BME280;34915;52.926;11.116;2023-06-10T01:20:37;101697.38;;;14.35;100.00
49104;BME280;34915;52.926;11.116;2023-06-10T01:23:05;101699.50;;;14.30;100.00
49104;BME280;34915;52.926;11.116;2023-06-10T01:25:32;101703.31;;;14.26;99.61
49104;BME280;34915;52.926;11.116;2023-06-10T01:30:36;101695.25;;;14.15;100.00
49104;BME280;34915;52.926;11.116;2023-06-10T01:33:06;101701.31;;;14.17;100.00
49104;BME280;34915;52.926;11.116;2023-06-10T01:35:36;101706.75;;;14.16;99.70
49104;BME280;34915;52.926;11.116;2023-06-10T01:38:03;101706.84;;;14.14;100.00
49104;BME280;34915;52.926;11.116;2023-06-10T01:40:30;101705.34;;;14.10;100.00
49104;BME280;34915;52.926;11.116;2023-06-10T01:42:56;101699.69;;;14.02;100.00
49104;BME280;34915;52.926;11.116;2023-06-10T01:45:21;101701.63;;;14.00;100.00
49104;BME280;34915;52.926;11.116;2023-06-10T01:47:47;101698.19;;;13.98;100.00
49104;BME280;34915;52.926;11.116;2023-06-10T01:50:15;101702.25;;;13.91;100.00
49104;BME280;34915;52.926;11.116;2023-06-10T01:52:42;101697.16;;;13.88;100.00
49104;BME280;34915;52.926;11.116;2023-06-10T01:55:07;101689.25;;;13.75;100.00
49104;BME280;34915;52.926;11.116;2023-06-10T01:57:33;101690.53;;;13.81;100.00
49104;BME280;34915;52.926;11.116;2023-06-10T01:59:59;101685.63;;;13.76;100.00
49104;BME280;34915;52.926;11.116;2023-06-10T02:02:24;101688.09;;;13.78;100.00
49104;BME280;34915;52.926;11.116;2023-06-10T02:04:50;101690.41;;;13.95;100.00
49104;BME280;34915;52.926;11.116;2023-06-10T02:07:16;101697.75;;;13.79;100.00
49104;BME280;34915;52.926;11.116;2023-06-10T02:09:41;101703.09;;;13.92;100.00
49104;BME280;34915;52.926;11.116;2023-06-10T02:12:07;101701.84;;;13.97;100.00
49104;BME280;34915;52.926;11.116;2023-06-10T02:14:33;101703.31;;;14.01;100.00
49104;BME280;34915;52.926;11.116;2023-06-10T02:16:59;101696.28;;;14.00;100.00
49104;BME280;34915;52.926;11.116;2023-06-10T02:19:24;101713.88;;;13.90;100.00
49104;BME280;34915;52.926;11.116;2023-06-10T02:21:52;101709.06;;;13.95;100.00
49104;BME280;34915;52.926;11.116;2023-06-10T02:24:18;101721.00;;;14.02;100.00
49104;BME280;34915;52.926;11.116;2023-06-10T02:26:43;101714.38;;;13.95;100.00
49104;BME280;34915;52.926;11.116;2023-06-10T02:29:13;101710.97;;;13.69;100.00
49104;BME280;34915;52.926;11.116;2023-06-10T02:31:39;101706.16;;;13.61;100.00
49104;BME280;34915;52.926;11.116;2023-06-10T02:34:05;101707.97;;;13.61;100.00
49104;BME280;34915;52.926;11.116;2023-06-10T02:36:30;101710.31;;;13.53;100.00
49104;BME280;34915;52.926;11.116;2023-06-10T02:38:56;101706.69;;;13.54;100.00
49104;BME280;34915;52.926;11.116;2023-06-10T02:41:24;101700.28;;;13.44;100.00
49104;BME280;34915;52.926;11.116;2023-06-10T02:43:53;101702.00;;;13.45;100.00
49104;BME280;34915;52.926;11.116;2023-06-10T02:46:18;101701.22;;;13.43;100.00
49104;BME280;34915;52.926;11.116;2023-06-10T02:48:45;101701.09;;;13.32;100.00
49104;BME280;34915;52.926;11.116;2023-06-10T02:51:11;101702.38;;;13.39;100.00
49104;BME280;34915;52.926;11.116;2023-06-10T02:53:37;101708.38;;;13.55;100.00
49104;BME280;34915;52.926;11.116;2023-06-10T02:56:03;101703.09;;;13.79;100.00
49104;BME280;34915;52.926;11.116;2023-06-10T02:58:29;101714.38;;;13.95;100.00
49104;BME280;34915;52.926;11.116;2023-06-10T03:00:57;101717.56;;;13.51;100.00
49104;BME280;34915;52.926;11.116;2023-06-10T03:03:23;101712.81;;;13.42;100.00
49104;BME280;34915;52.926;11.116;2023-06-10T03:05:51;101716.47;;;13.41;100.00
49104;BME280;34915;52.926;11.116;2023-06-10T03:08:16;101717.59;;;13.37;100.00
49104;BME280;34915;52.926;11.116;2023-06-10T03:10:42;101714.09;;;13.36;100.00
49104;BME280;34915;52.926;11.116;2023-06-10T03:13:07;101723.66;;;13.39;100.00
49104;BME280;34915;52.926;11.116;2023-06-10T03:15:35;101717.06;;;13.32;100.00
49104;BME280;34915;52.926;11.116;2023-06-10T03:18:01;101709.94;;;13.32;100.00
49104;BME280;34915;52.926;11.116;2023-06-10T03:20:27;101720.28;;;13.37;100.00
49104;BME280;34915;52.926;11.116;2023-06-10T03:22:54;101716.66;;;13.38;100.00
49104;BME280;34915;52.926;11.116;2023-06-10T03:25:22;101715.16;;;13.34;100.00
49104;BME280;34915;52.926;11.116;2023-06-10T03:27:48;101718.03;;;13.31;100.00
49104;BME280;34915;52.926;11.116;2023-06-10T03:30:13;101723.25;;;13.32;100.00
49104;BME280;34915;52.926;11.116;2023-06-10T03:32:39;101714.50;;;13.30;100.00
49104;BME280;34915;52.926;11.116;2023-06-10T03:35:07;101722.59;;;13.29;100.00
49104;BME280;34915;52.926;11.116;2023-06-10T03:37:32;101729.41;;;13.33;100.00
49104;BME280;34915;52.926;11.116;2023-06-10T03:39:58;101731.13;;;13.34;100.00
49104;BME280;34915;52.926;11.116;2023-06-10T03:42:24;101728.34;;;13.35;100.00
49104;BME280;34915;52.926;11.116;2023-06-10T03:44:49;101726.00;;;13.31;100.00
49104;BME280;34915;52.926;11.116;2023-06-10T03:47:15;101731.13;;;13.34;100.00
49104;BME280;34915;52.926;11.116;2023-06-10T03:49:41;101731.19;;;13.46;100.00
49104;BME280;34915;52.926;11.116;2023-06-10T03:52:06;101727.50;;;13.35;100.00
49104;BME280;34915;52.926;11.116;2023-06-10T03:54:32;101732.84;;;13.35;100.00
49104;BME280;34915;52.926;11.116;2023-06-10T03:57:00;101722.00;;;13.38;100.00
49104;BME280;34915;52.926;11.116;2023-06-10T03:59:26;101720.06;;;13.40;100.00
49104;BME280;34915;52.926;11.116;2023-06-10T04:01:52;101719.00;;;13.42;100.00
49104;BME280;34915;52.926;11.116;2023-06-10T04:04:19;101732.63;;;13.38;100.00
49104;BME280;34915;52.926;11.116;2023-06-10T04:06:45;101723.47;;;13.42;100.00
49104;BME280;34915;52.926;11.116;2023-06-10T04:09:11;101721.78;;;13.41;100.00
49104;BME280;34915;52.926;11.116;2023-06-10T04:11:38;101732.22;;;13.44;100.00
49104;BME280;34915;52.926;11.116;2023-06-10T04:14:03;101732.22;;;13.44;100.00
49104;BME280;34915;52.926;11.116;2023-06-10T04:16:29;101726.91;;;13.44;100.00
49104;BME280;34915;52.926;11.116;2023-06-10T04:18:54;101740.75;;;13.49;100.00
49104;BME280;34915;52.926;11.116;2023-06-10T04:21:20;101738.84;;;13.51;100.00
49104;BME280;34915;52.926;11.116;2023-06-10T04:23:47;101745.22;;;13.61;100.00
49104;BME280;34915;52.926;11.116;2023-06-10T04:26:12;101739.91;;;13.61;100.00
49104;BME280;34915;52.926;11.116;2023-06-10T04:28:38;101735.22;;;13.52;100.00
49104;BME280;34915;52.926;11.116;2023-06-10T04:31:04;101736.94;;;13.53;100.00
49104;BME280;34915;52.926;11.116;2023-06-10T04:33:30;101726.06;;;13.56;100.00
49104;BME280;34915;52.926;11.116;2023-06-10T04:35:56;101718.41;;;13.64;100.00
49104;BME280;34915;52.926;11.116;2023-06-10T04:38:22;101729.94;;;13.64;100.00
49104;BME280;34915;52.926;11.116;2023-06-10T04:40:47;101726.94;;;13.69;100.00
49104;BME280;34915;52.926;11.116;2023-06-10T04:43:13;101738.34;;;13.71;100.00
49104;BME280;34915;52.926;11.116;2023-06-10T04:45:39;101729.94;;;13.77;100.00
49104;BME280;34915;52.926;11.116;2023-06-10T04:48:05;101728.25;;;13.76;100.00
49104;BME280;34915;52.926;11.116;2023-06-10T04:50:30;101723.13;;;13.73;100.00
49104;BME280;34915;52.926;11.116;2023-06-10T04:52:58;101729.94;;;13.77;100.00
49104;BME280;34915;52.926;11.116;2023-06-10T04:55:24;101721.00;;;13.77;100.00
49104;BME280;34915;52.926;11.116;2023-06-10T04:57:50;101715.25;;;13.83;100.00
49104;BME280;34915;52.926;11.116;2023-06-10T05:00:17;101722.50;;;13.81;100.00
49104;BME280;34915;52.926;11.116;2023-06-10T05:02:43;101718.63;;;13.85;100.00
49104;BME280;34915;52.926;11.116;2023-06-10T05:05:08;101725.03;;;13.95;100.00
49104;BME280;34915;52.926;11.116;2023-06-10T05:07:34;101724.00;;;13.98;100.00
49104;BME280;34915;52.926;11.116;2023-06-10T05:09:59;101734.03;;;14.07;100.00
49104;BME280;34915;52.926;11.116;2023-06-10T05:12:25;101727.00;;;14.06;100.00
49104;BME280;34915;52.926;11.116;2023-06-10T05:14:51;101718.28;;;14.16;100.00
49104;BME280;34915;52.926;11.116;2023-06-10T05:17:17;101719.97;;;14.17;100.00
49104;BME280;34915;52.926;11.116;2023-06-10T05:19:42;101724.44;;;14.29;100.00
49104;BME280;34915;52.926;11.116;2023-06-10T05:22:08;101724.22;;;14.32;100.00
49104;BME280;34915;52.926;11.116;2023-06-10T05:24:34;101723.03;;;14.36;100.00
49104;BME280;34915;52.926;11.116;2023-06-10T05:27:00;101730.59;;;14.42;100.00
49104;BME280;34915;52.926;11.116;2023-06-10T05:29:25;101728.69;;;14.44;100.00
49104;BME280;34915;52.926;11.116;2023-06-10T05:31:51;101722.94;;;14.50;100.00
49104;BME280;34915;52.926;11.116;2023-06-10T05:34:16;101727.81;;;14.56;100.00
49104;BME280;34915;52.926;11.116;2023-06-10T05:36:42;101728.88;;;14.66;100.00
49104;BME280;34915;52.926;11.116;2023-06-10T05:39:09;101733.31;;;14.77;100.00
49104;BME280;34915;52.926;11.116;2023-06-10T05:41:35;101734.59;;;14.84;100.00
49104;BME280;34915;52.926;11.116;2023-06-10T05:44:00;101729.88;;;14.88;100.00
49104;BME280;34915;52.926;11.116;2023-06-10T05:46:26;101731.47;;;14.90;100.00
49104;BME280;34915;52.926;11.116;2023-06-10T05:48:51;101732.41;;;15.02;100.00
49104;BME280;34915;52.926;11.116;2023-06-10T05:51:17;101732.16;;;15.05;100.00
49104;BME280;34915;52.926;11.116;2023-06-10T05:53:42;101731.59;;;15.12;98.51
49104;BME280;34915;52.926;11.116;2023-06-10T05:56:08;101728.72;;;15.15;97.68
49104;BME280;34915;52.926;11.116;2023-06-10T05:58:34;101714.19;;;15.19;98.55
49104;BME280;34915;52.926;11.116;2023-06-10T06:01:00;101719.84;;;15.38;99.10
49104;BME280;34915;52.926;11.116;2023-06-10T06:03:26;101727.91;;;15.49;97.94
49104;BME280;34915;52.926;11.116;2023-06-10T06:05:55;101719.69;;;15.63;98.73
49104;BME280;34915;52.926;11.116;2023-06-10T06:08:20;101726.94;;;15.73;96.21
49104;BME280;34915;52.926;11.116;2023-06-10T06:10:48;101723.44;;;15.83;96.09
49104;BME280;34915;52.926;11.116;2023-06-10T06:13:14;101728.53;;;15.86;94.89
49104;BME280;34915;52.926;11.116;2023-06-10T06:15:39;101720.88;;;15.93;94.76
49104;BME280;34915;52.926;11.116;2023-06-10T06:18:05;101723.94;;;16.10;94.50
49104;BME280;34915;52.926;11.116;2023-06-10T06:20:30;101727.84;;;16.17;94.09
49104;BME280;34915;52.926;11.116;2023-06-10T06:22:58;101721.81;;;16.26;93.74
49104;BME280;34915;52.926;11.116;2023-06-10T06:25:24;101723.97;;;16.21;91.37
49104;BME280;34915;52.926;11.116;2023-06-10T06:27:50;101728.16;;;16.36;93.18
49104;BME280;34915;52.926;11.116;2023-06-10T06:30:15;101721.34;;;16.43;91.46
49104;BME280;34915;52.926;11.116;2023-06-10T06:32:41;101726.22;;;16.49;91.16
49104;BME280;34915;52.926;11.116;2023-06-10T06:35:06;101718.66;;;16.65;92.26
49104;BME280;34915;52.926;11.116;2023-06-10T06:37:33;101724.72;;;16.77;91.17
49104;BME280;34915;52.926;11.116;2023-06-10T06:39:59;101722.22;;;17.07;90.40
49104;BME280;34915;52.926;11.116;2023-06-10T06:42:25;101716.38;;;17.13;88.98
49104;BME280;34915;52.926;11.116;2023-06-10T06:44:50;101719.75;;;17.15;88.24
49104;BME280;34915;52.926;11.116;2023-06-10T06:47:16;101722.91;;;17.20;88.52
49104;BME280;34915;52.926;11.116;2023-06-10T06:49:46;101710.50;;;17.19;89.37
49104;BME280;34915;52.926;11.116;2023-06-10T06:52:12;101724.66;;;17.21;87.87
49104;BME280;34915;52.926;11.116;2023-06-10T06:54:38;101725.56;;;17.31;87.98
49104;BME280;34915;52.926;11.116;2023-06-10T06:57:06;101728.50;;;17.28;88.08
49104;BME280;34915;52.926;11.116;2023-06-10T06:59:34;101728.38;;;17.29;87.63
49104;BME280;34915;52.926;11.116;2023-06-10T07:02:00;101733.59;;;17.42;88.83
49104;BME280;34915;52.926;11.116;2023-06-10T07:04:25;101724.09;;;17.38;86.00
49104;BME280;34915;52.926;11.116;2023-06-10T07:06:51;101729.69;;;17.46;88.53
49104;BME280;34915;52.926;11.116;2023-06-10T07:09:16;101732.81;;;17.51;87.55
49104;BME280;34915;52.926;11.116;2023-06-10T07:11:42;101732.19;;;17.58;87.76
49104;BME280;34915;52.926;11.116;2023-06-10T07:14:07;101745.94;;;17.65;87.59
49104;BME280;34915;52.926;11.116;2023-06-10T07:16:33;101741.03;;;17.70;86.02
49104;BME280;34915;52.926;11.116;2023-06-10T07:18:59;101729.31;;;17.71;86.13
49104;BME280;34915;52.926;11.116;2023-06-10T07:21:25;101742.41;;;17.84;86.67
49104;BME280;34915;52.926;11.116;2023-06-10T07:23:50;101737.44;;;18.00;87.94
49104;BME280;34915;52.926;11.116;2023-06-10T07:26:19;101734.31;;;18.16;87.81
49104;BME280;34915;52.926;11.116;2023-06-10T07:28:45;101740.44;;;18.27;85.54
49104;BME280;34915;52.926;11.116;2023-06-10T07:31:10;101737.56;;;18.39;84.36
49104;BME280;34915;52.926;11.116;2023-06-10T07:33:37;101749.59;;;18.45;83.86
49104;BME280;34915;52.926;11.116;2023-06-10T07:36:05;101760.41;;;18.64;83.63
49104;BME280;34915;52.926;11.116;2023-06-10T07:38:31;101764.97;;;18.73;84.76
49104;BME280;34915;52.926;11.116;2023-06-10T07:40:59;101757.06;;;18.80;82.69
49104;BME280;34915;52.926;11.116;2023-06-10T07:43:24;101761.63;;;18.89;82.45
49104;BME280;34915;52.926;11.116;2023-06-10T07:45:50;101763.59;;;18.87;82.24
49104;BME280;34915;52.926;11.116;2023-06-10T07:48:16;101751.53;;;19.02;83.29
49104;BME280;34915;52.926;11.116;2023-06-10T07:50:41;101749.44;;;19.15;83.34
49104;BME280;34915;52.926;11.116;2023-06-10T07:53:07;101751.59;;;19.30;81.56
49104;BME280;34915;52.926;11.116;2023-06-10T07:55:32;101757.53;;;19.34;79.12
49104;BME280;34915;52.926;11.116;2023-06-10T07:57:58;101749.34;;;19.35;80.98
49104;BME280;34915;52.926;11.116;2023-06-10T08:00:23;101745.09;;;19.52;81.58
49104;BME280;34915;52.926;11.116;2023-06-10T08:02:49;101744.53;;;19.76;80.12
49104;BME280;34915;52.926;11.116;2023-06-10T08:05:16;101748.22;;;19.76;79.02
49104;BME280;34915;52.926;11.116;2023-06-10T08:07:42;101754.19;;;19.88;81.13
49104;BME280;34915;52.926;11.116;2023-06-10T08:10:08;101744.53;;;19.95;79.85
49104;BME280;34915;52.926;11.116;2023-06-10T08:12:34;101753.31;;;20.16;78.82
49104;BME280;34915;52.926;11.116;2023-06-10T08:15:00;101748.72;;;20.35;77.64
49104;BME280;34915;52.926;11.116;2023-06-10T08:17:26;101751.50;;;20.53;77.90
49104;BME280;34915;52.926;11.116;2023-06-10T08:19:52;101741.84;;;20.50;75.56
49104;BME280;34915;52.926;11.116;2023-06-10T08:22:20;101737.13;;;20.62;77.41
49104;BME280;34915;52.926;11.116;2023-06-10T08:24:47;101738.06;;;20.79;77.18
49104;BME280;34915;52.926;11.116;2023-06-10T08:27:13;101730.72;;;20.81;76.91
49104;BME280;34915;52.926;11.116;2023-06-10T08:29:39;101734.56;;;20.70;76.67
49104;BME280;34915;52.926;11.116;2023-06-10T08:32:05;101738.50;;;20.84;75.75
49104;BME280;34915;52.926;11.116;2023-06-10T08:34:33;101749.41;;;20.83;73.85
49104;BME280;34915;52.926;11.116;2023-06-10T08:37:00;101740.97;;;20.69;73.16
49104;BME280;34915;52.926;11.116;2023-06-10T08:39:29;101741.47;;;20.81;76.48
49104;BME280;34915;52.926;11.116;2023-06-10T08:42:13;101738.84;;;20.99;76.75
49104;BME280;34915;52.926;11.116;2023-06-10T08:44:43;101746.97;;;21.16;76.29
49104;BME280;34915;52.926;11.116;2023-06-10T08:47:16;101742.63;;;21.23;75.14
49104;BME280;34915;52.926;11.116;2023-06-10T08:49:45;101735.88;;;21.19;73.51
49104;BME280;34915;52.926;11.116;2023-06-10T08:52:19;101743.31;;;21.52;75.96
49104;BME280;34915;52.926;11.116;2023-06-10T08:54:48;101738.13;;;21.76;74.58
49104;BME280;34915;52.926;11.116;2023-06-10T08:57:17;101743.94;;;21.80;72.00
49104;BME280;34915;52.926;11.116;2023-06-10T08:59:46;101733.41;;;22.12;74.96
49104;BME280;34915;52.926;11.116;2023-06-10T09:02:11;101736.78;;;22.14;71.39
49104;BME280;34915;52.926;11.116;2023-06-10T09:04:39;101725.16;;;21.96;72.89
49104;BME280;34915;52.926;11.116;2023-06-10T09:07:05;101720.44;;;21.73;69.83
49104;BME280;34915;52.926;11.116;2023-06-10T09:09:32;101733.59;;;21.93;75.64
49104;BME280;34915;52.926;11.116;2023-06-10T09:12:00;101727.00;;;21.96;71.77
49104;BME280;34915;52.926;11.116;2023-06-10T09:14:25;101733.13;;;21.80;70.34
49104;BME280;34915;52.926;11.116;2023-06-10T09:16:51;101735.00;;;21.63;71.55
49104;BME280;34915;52.926;11.116;2023-06-10T09:19:16;101726.66;;;21.74;73.30
49104;BME280;34915;52.926;11.116;2023-06-10T09:21:42;101731.84;;;21.84;74.57
49104;BME280;34915;52.926;11.116;2023-06-10T09:24:08;101728.50;;;22.16;73.90
49104;BME280;34915;52.926;11.116;2023-06-10T09:26:34;101730.22;;;22.17;71.51
49104;BME280;34915;52.926;11.116;2023-06-10T09:29:04;101733.94;;;22.41;73.11
49104;BME280;34915;52.926;11.116;2023-06-10T09:31:39;101726.63;;;22.59;72.48
49104;BME280;34915;52.926;11.116;2023-06-10T09:34:13;101718.47;;;22.51;68.45
49104;BME280;34915;52.926;11.116;2023-06-10T09:36:39;101720.50;;;22.49;69.53
49104;BME280;34915;52.926;11.116;2023-06-10T09:39:13;101717.53;;;22.68;71.80
49104;BME280;34915;52.926;11.116;2023-06-10T09:41:43;101713.53;;;22.79;69.58
49104;BME280;34915;52.926;11.116;2023-06-10T09:44:15;101711.94;;;22.94;70.60
49104;BME280;34915;52.926;11.116;2023-06-10T09:46:45;101712.56;;;22.88;68.63
49104;BME280;34915;52.926;11.116;2023-06-10T09:49:15;101715.63;;;22.93;71.21
49104;BME280;34915;52.926;11.116;2023-06-10T09:51:52;101713.63;;;22.95;71.60
49104;BME280;34915;52.926;11.116;2023-06-10T09:54:19;101706.56;;;23.10;72.44
49104;BME280;34915;52.926;11.116;2023-06-10T09:56:47;101702.38;;;23.24;70.53
49104;BME280;34915;52.926;11.116;2023-06-10T09:59:13;101698.19;;;23.37;67.92
49104;BME280;34915;52.926;11.116;2023-06-10T10:01:39;101707.00;;;23.55;68.99
49104;BME280;34915;52.926;11.116;2023-06-10T10:04:04;101705.00;;;23.73;68.24
49104;BME280;34915;52.926;11.116;2023-06-10T10:06:30;101707.72;;;23.80;66.78
49104;BME280;34915;52.926;11.116;2023-06-10T10:08:55;101703.97;;;23.97;68.91
49104;BME280;34915;52.926;11.116;2023-06-10T10:11:22;101710.72;;;24.09;67.97
49104;BME280;34915;52.926;11.116;2023-06-10T10:13:50;101709.03;;;24.16;67.16
49104;BME280;34915;52.926;11.116;2023-06-10T10:16:21;101705.34;;;24.01;64.62
49104;BME280;34915;52.926;11.116;2023-06-10T10:18:54;101702.25;;;24.12;66.30
49104;BME280;34915;52.926;11.116;2023-06-10T10:21:26;101702.63;;;24.01;64.50
49104;BME280;34915;52.926;11.116;2023-06-10T10:26:22;101691.47;;;23.88;66.80
49104;BME280;34915;52.926;11.116;2023-06-10T10:29:10;101692.81;;;24.00;66.45
49104;BME280;34915;52.926;11.116;2023-06-10T10:31:37;101690.28;;;23.99;64.52
49104;BME280;34915;52.926;11.116;2023-06-10T10:34:06;101686.34;;;24.09;65.62
49104;BME280;34915;52.926;11.116;2023-06-10T10:36:35;101697.19;;;24.09;67.30
49104;BME280;34915;52.926;11.116;2023-06-10T10:39:03;101689.41;;;24.14;65.54
49104;BME280;34915;52.926;11.116;2023-06-10T10:41:30;101678.88;;;24.27;67.16
49104;BME280;34915;52.926;11.116;2023-06-10T10:43:57;101679.91;;;24.26;65.19
49104;BME280;34915;52.926;11.116;2023-06-10T10:46:23;101674.13;;;24.37;64.74
49104;BME280;34915;52.926;11.116;2023-06-10T10:48:54;101676.50;;;24.32;63.20
49104;BME280;34915;52.926;11.116;2023-06-10T10:51:23;101679.22;;;24.24;66.12
49104;BME280;34915;52.926;11.116;2023-06-10T10:54:14;101680.06;;;24.25;64.84
49104;BME280;34915;52.926;11.116;2023-06-10T10:59:57;101678.41;;;24.70;65.43
49104;BME280;34915;52.926;11.116;2023-06-10T11:02:41;101674.16;;;24.75;65.48
49104;BME280;34915;52.926;11.116;2023-06-10T11:05:13;101664.44;;;24.88;66.04
49104;BME280;34915;52.926;11.116;2023-06-10T11:07:40;101669.28;;;25.01;64.50
49104;BME280;34915;52.926;11.116;2023-06-10T11:10:13;101670.94;;;25.10;62.27
49104;BME280;34915;52.926;11.116;2023-06-10T11:15:17;101654.53;;;25.03;63.86
49104;BME280;34915;52.926;11.116;2023-06-10T11:26:14;101644.44;;;25.42;61.94
49104;BME280;34915;52.926;11.116;2023-06-10T11:28:42;101645.97;;;25.67;59.78
49104;BME280;34915;52.926;11.116;2023-06-10T11:31:09;101648.22;;;25.78;58.84
49104;BME280;34915;52.926;11.116;2023-06-10T11:33:44;101647.84;;;25.80;59.63
49104;BME280;34915;52.926;11.116;2023-06-10T11:36:10;101642.78;;;25.78;57.41
49104;BME280;34915;52.926;11.116;2023-06-10T11:38:35;101645.81;;;25.82;57.74
49104;BME280;34915;52.926;11.116;2023-06-10T11:41:02;101636.97;;;25.80;58.19
49104;BME280;34915;52.926;11.116;2023-06-10T11:43:28;101650.13;;;25.91;54.96
49104;BME280;34915;52.926;11.116;2023-06-10T11:45:55;101644.22;;;26.02;57.81
49104;BME280;34915;52.926;11.116;2023-06-10T11:48:25;101647.78;;;25.88;56.29
49104;BME280;34915;52.926;11.116;2023-06-10T11:50:53;101650.56;;;25.80;56.56
49104;BME280;34915;52.926;11.116;2023-06-10T11:53:19;101637.09;;;25.87;56.50
49104;BME280;34915;52.926;11.116;2023-06-10T11:55:46;101638.03;;;25.94;54.94
49104;BME280;34915;52.926;11.116;2023-06-10T11:58:22;101648.28;;;26.06;54.50
49104;BME280;34915;52.926;11.116;2023-06-10T12:00:48;101642.84;;;26.06;55.41
49104;BME280;34915;52.926;11.116;2023-06-10T12:03:14;101637.78;;;26.03;55.09
49104;BME280;34915;52.926;11.116;2023-06-10T12:05:40;101623.81;;;26.06;58.16
49104;BME280;34915;52.926;11.116;2023-06-10T12:08:12;101620.63;;;26.17;57.29
49104;BME280;34915;52.926;11.116;2023-06-10T12:10:41;101631.03;;;26.28;57.02
49104;BME280;34915;52.926;11.116;2023-06-10T12:13:10;101630.69;;;26.31;56.69
49104;BME280;34915;52.926;11.116;2023-06-10T12:15:39;101628.63;;;26.33;54.84
49104;BME280;34915;52.926;11.116;2023-06-10T12:18:05;101632.78;;;26.29;54.88
49104;BME280;34915;52.926;11.116;2023-06-10T12:20:32;101616.47;;;26.29;53.07
49104;BME280;34915;52.926;11.116;2023-06-10T12:23:00;101628.41;;;26.20;54.20
49104;BME280;34915;52.926;11.116;2023-06-10T12:25:27;101604.25;;;26.25;53.26
49104;BME280;34915;52.926;11.116;2023-06-10T12:27:55;101615.59;;;26.43;52.93
49104;BME280;34915;52.926;11.116;2023-06-10T12:30:22;101613.25;;;26.40;51.68
49104;BME280;34915;52.926;11.116;2023-06-10T12:32:48;101608.66;;;26.40;56.21
49104;BME280;34915;52.926;11.116;2023-06-10T12:35:19;101603.69;;;26.44;55.20
49104;BME280;34915;52.926;11.116;2023-06-10T12:40:29;101612.13;;;26.49;52.47
49104;BME280;34915;52.926;11.116;2023-06-10T12:42:57;101599.28;;;26.43;52.17
49104;BME280;34915;52.926;11.116;2023-06-10T12:45:33;101603.78;;;26.50;52.84
49104;BME280;34915;52.926;11.116;2023-06-10T12:50:40;101594.81;;;26.71;53.65
49104;BME280;34915;52.926;11.116;2023-06-10T12:53:06;101600.03;;;26.86;52.35
49104;BME280;34915;52.926;11.116;2023-06-10T12:55:32;101597.63;;;26.91;51.50
49104;BME280;34915;52.926;11.116;2023-06-10T12:58:01;101590.84;;;26.87;51.67
49104;BME280;34915;52.926;11.116;2023-06-10T13:00:30;101599.84;;;26.88;52.49
49104;BME280;34915;52.926;11.116;2023-06-10T13:03:00;101588.56;;;27.05;52.69